Time;durP1;ratioP1;P1;durP2;ratioP2;P2;SDS_P1;SDS_P2;PMS_P1;PMS_P2;Temp;Humidity;BMP_temperature;BMP_pressure;BME280_temperature;BME280_humidity;BME280_pressure;Samples;Min_cycle;Max_cycle;Signal;HPM_P1;HPM_P2
2022/09/27 00:00:41;;;;;;;0.20;0.10;;;;;;;;;;4953491;28;20579;-87
2022/09/27 00:03:08;;;;;;;0.20;0.10;;;;;;;;;;4969097;28;20053;-88
2022/09/27 00:05:34;;;;;;;0.20;0.10;;;;;;;;;;4954226;28;20128;-89
2022/09/27 00:08:00;;;;;;;0.20;0.10;;;;;;;;;;4951907;28;20567;-87
2022/09/27 00:10:27;;;;;;;0.20;0.10;;;;;;;;;;4971921;28;20030;-90
2022/09/27 00:12:57;;;;;;;0.20;0.10;;;;;;;;;;4966274;28;20121;-88
2022/09/27 00:15:23;;;;;;;0.20;0.10;;;;;;;;;;4950657;28;20421;-89
2022/09/27 00:17:50;;;;;;;0.30;0.25;;;;;;;;;;4961751;28;20058;-89
2022/09/27 00:20:18;;;;;;;0.20;0.10;;;;;;;;;;4963900;28;20181;-87
2022/09/27 00:22:44;;;;;;;0.20;0.10;;;;;;;;;;4946060;28;20136;-86
2022/09/27 00:25:10;;;;;;;0.20;0.10;;;;;;;;;;4946870;28;20038;-89
2022/09/27 00:27:39;;;;;;;0.20;0.08;;;;;;;;;;4948898;28;20049;-88
2022/09/27 00:30:05;;;;;;;0.20;0.10;;;;;;;;;;4962375;28;20077;-87
2022/09/27 00:32:31;;;;;;;0.20;0.10;;;;;;;;;;4960454;28;20118;-86
2022/09/27 00:34:58;;;;;;;0.20;0.10;;;;;;;;;;4962433;28;20043;-88
2022/09/27 00:37:26;;;;;;;0.20;0.10;;;;;;;;;;4929261;28;20046;-86
2022/09/27 00:39:53;;;;;;;0.40;0.20;;;;;;;;;;4963016;28;20056;-87
2022/09/27 00:42:19;;;;;;;0.20;0.10;;;;;;;;;;4964623;28;20085;-88
2022/09/27 00:44:59;;;;;;;0.20;0.10;;;;;;;;;;4963330;28;20050;-87
2022/09/27 00:47:43;;;;;;;0.20;0.10;;;;;;;;;;4979396;28;20046;-87
2022/09/27 00:50:21;;;;;;;0.20;0.10;;;;;;;;;;4960808;28;20130;-84
2022/09/27 00:52:48;;;;;;;0.20;0.10;;;;;;;;;;4961523;28;20130;-86
2022/09/27 00:55:25;;;;;;;0.20;0.10;;;;;;;;;;4960538;28;20070;-85
2022/09/27 00:57:51;;;;;;;0.20;0.10;;;;;;;;;;4959872;28;20400;-87
2022/09/27 01:00:17;;;;;;;0.20;0.10;;;;;;;;;;4962182;28;20054;-85
2022/09/27 01:02:46;;;;;;;0.20;0.10;;;;;;;;;;4946435;28;20041;-85
2022/09/27 01:05:14;;;;;;;0.20;0.10;;;;;;;;;;4960694;28;20050;-86
2022/09/27 01:07:40;;;;;;;0.20;0.10;;;;;;;;;;4962174;28;20061;-86
2022/09/27 01:10:06;;;;;;;0.20;0.10;;;;;;;;;;4929452;28;20203;-88
2022/09/27 01:12:32;;;;;;;0.20;0.10;;;;;;;;;;4963930;28;20050;-87
2022/09/27 01:15:05;;;;;;;0.20;0.10;;;;;;;;;;4963097;28;20141;-86
2022/09/27 01:17:34;;;;;;;0.20;0.10;;;;;;;;;;4962091;28;20053;-86
2022/09/27 01:20:19;;;;;;;0.20;0.10;;;;;;;;;;4974644;28;20050;-86
2022/09/27 01:22:55;;;;;;;0.20;0.10;;;;;;;;;;4960739;28;20038;-87
2022/09/27 01:25:31;;;;;;;0.20;0.10;;;;;;;;;;4974329;28;20495;-85
2022/09/27 01:28:09;;;;;;;0.20;0.10;;;;;;;;;;4961397;28;20466;-85
2022/09/27 01:30:42;;;;;;;0.20;0.10;;;;;;;;;;4977056;28;20049;-86
2022/09/27 01:33:27;;;;;;;0.20;0.10;;;;;;;;;;4977439;28;20084;-87
2022/09/27 01:36:10;;;;;;;0.20;0.10;;;;;;;;;;4961280;28;20485;-88
2022/09/27 01:38:49;;;;;;;0.20;0.10;;;;;;;;;;4958977;28;20489;-86
2022/09/27 01:41:36;;;;;;;0.20;0.10;;;;;;;;;;4942945;28;20038;-89
2022/09/27 01:44:04;;;;;;;0.20;0.10;;;;;;;;;;4963504;28;20556;-86
2022/09/27 01:46:36;;;;;;;0.20;0.10;;;;;;;;;;4978170;28;20042;-86
2022/09/27 01:49:08;;;;;;;0.20;0.10;;;;;;;;;;4946471;28;21192;-89
2022/09/27 01:51:34;;;;;;;;;;;;;;;;;;4962268;28;20328;-86
2022/09/27 01:54:01;;;;;;;0.20;0.10;;;;;;;;;;4962653;28;19918;-85
2022/09/27 01:56:48;;;;;;;0.20;0.10;;;;;;;;;;4960242;28;20893;-85
2022/09/27 01:59:29;;;;;;;0.20;0.10;;;;;;;;;;4946543;28;20038;-86
2022/09/27 02:01:58;;;;;;;0.20;0.10;;;;;;;;;;4961112;28;20043;-84
2022/09/27 02:04:27;;;;;;;0.20;0.10;;;;;;;;;;4963931;28;20054;-88
2022/09/27 02:07:02;;;;;;;0.20;0.10;;;;;;;;;;4959516;28;20527;-89
2022/09/27 02:09:32;;;;;;;0.20;0.10;;;;;;;;;;4972025;28;20573;-88
2022/09/27 02:12:03;;;;;;;0.20;0.10;;;;;;;;;;4944858;28;20398;-88
2022/09/27 02:14:47;;;;;;;0.20;0.10;;;;;;;;;;4961210;28;20074;-90
2022/09/27 02:17:21;;;;;;;0.20;0.10;;;;;;;;;;4962622;28;20030;-87
2022/09/27 02:20:05;;;;;;;0.20;0.10;;;;;;;;;;4962442;28;20073;-86
2022/09/27 02:22:44;;;;;;;0.20;0.10;;;;;;;;;;4949319;28;20092;-87
2022/09/27 02:25:28;;;;;;;0.20;0.10;;;;;;;;;;4980117;28;20776;-87
2022/09/27 02:30:46;;;;;;;0.20;0.10;;;;;;;;;;4959013;28;20042;-84
2022/09/27 02:33:12;;;;;;;0.20;0.10;;;;;;;;;;4944969;28;20074;-86
2022/09/27 02:35:38;;;;;;;0.20;0.10;;;;;;;;;;4959067;28;20065;-85
2022/09/27 02:38:05;;;;;;;0.20;0.10;;;;;;;;;;4960473;28;20045;-86
2022/09/27 02:40:34;;;;;;;0.20;0.10;;;;;;;;;;4928581;28;20048;-84
2022/09/27 02:43:06;;;;;;;0.20;0.10;;;;;;;;;;4960092;28;20497;-86
2022/09/27 02:45:40;;;;;;;0.20;0.10;;;;;;;;;;4965399;28;20050;-85
2022/09/27 02:48:19;;;;;;;0.20;0.10;;;;;;;;;;4974597;28;20042;-86
2022/09/27 02:51:04;;;;;;;0.20;0.10;;;;;;;;;;4960346;28;20154;-86
2022/09/27 02:53:30;;;;;;;0.20;0.10;;;;;;;;;;4960576;28;20050;-87
2022/09/27 02:55:56;;;;;;;0.20;0.10;;;;;;;;;;4963647;28;20038;-85
2022/09/27 02:58:43;;;;;;;0.20;0.10;;;;;;;;;;4957898;28;20046;-87
2022/09/27 03:01:12;;;;;;;0.20;0.10;;;;;;;;;;4943950;28;20042;-88
2022/09/27 03:03:52;;;;;;;0.20;0.10;;;;;;;;;;4961485;28;20089;-87
2022/09/27 03:06:20;;;;;;;7.13;0.20;;;;;;;;;;4963087;28;20101;-88
2022/09/27 03:08:46;;;;;;;0.20;0.10;;;;;;;;;;4960820;28;20656;-85
2022/09/27 03:11:12;;;;;;;0.20;0.10;;;;;;;;;;4960592;28;20193;-87
2022/09/27 03:13:39;;;;;;;0.20;0.10;;;;;;;;;;4962613;28;20129;-86
2022/09/27 03:16:05;;;;;;;0.20;0.10;;;;;;;;;;4930442;28;20053;-88
2022/09/27 03:18:38;;;;;;;0.20;0.10;;;;;;;;;;4963276;28;20129;-85
2022/09/27 03:21:15;;;;;;;0.20;0.10;;;;;;;;;;4958143;28;20342;-87
2022/09/27 03:23:41;;;;;;;0.20;0.10;;;;;;;;;;4960826;28;20127;-88
2022/09/27 03:26:07;;;;;;;0.20;0.10;;;;;;;;;;4929881;28;20049;-88
2022/09/27 03:28:34;;;;;;;0.20;0.10;;;;;;;;;;4944538;28;20536;-88
2022/09/27 03:31:00;;;;;;;0.20;0.10;;;;;;;;;;4926936;28;20185;-87
2022/09/27 03:33:29;;;;;;;0.20;0.00;;;;;;;;;;4960021;28;20689;-88
2022/09/27 03:36:10;;;;;;;0.20;0.10;;;;;;;;;;4929980;28;20441;-90
2022/09/27 03:38:39;;;;;;;0.20;0.10;;;;;;;;;;4945427;28;20111;-89
2022/09/27 03:41:11;;;;;;;0.20;0.10;;;;;;;;;;4961952;28;20073;-88
2022/09/27 03:43:37;;;;;;;0.20;0.10;;;;;;;;;;4943418;28;20077;-87
2022/09/27 03:46:06;;;;;;;0.20;0.10;;;;;;;;;;4939417;28;20053;-86
2022/09/27 03:48:41;;;;;;;0.20;0.10;;;;;;;;;;4944649;28;20068;-87
2022/09/27 03:51:08;;;;;;;0.20;0.10;;;;;;;;;;4963552;28;20073;-86
2022/09/27 03:53:34;;;;;;;0.20;0.10;;;;;;;;;;4946987;28;20039;-86
2022/09/27 03:56:01;;;;;;;0.20;0.10;;;;;;;;;;4961182;28;20046;-85
2022/09/27 03:58:36;;;;;;;0.20;0.10;;;;;;;;;;4929966;28;20497;-87
2022/09/27 04:01:08;;;;;;;0.20;0.10;;;;;;;;;;4962260;28;20378;-90
2022/09/27 04:03:44;;;;;;;0.20;0.10;;;;;;;;;;4945854;28;20088;-90
2022/09/27 04:06:13;;;;;;;0.20;0.10;;;;;;;;;;4975552;28;20615;-88
2022/09/27 04:08:39;;;;;;;0.20;0.10;;;;;;;;;;4942011;28;20046;-87
2022/09/27 04:11:08;;;;;;;0.20;0.10;;;;;;;;;;4990413;23;20536;-87
2022/09/27 04:13:43;;;;;;;0.20;0.10;;;;;;;;;;4995121;28;20042;-93
2022/09/27 04:16:09;;;;;;;0.20;0.10;;;;;;;;;;4980583;28;20043;-86
2022/09/27 04:18:35;;;;;;;0.20;0.10;;;;;;;;;;5009302;28;20065;-87
2022/09/27 04:21:02;;;;;;;0.20;0.10;;;;;;;;;;5007785;28;20034;-85
2022/09/27 04:23:28;;;;;;;0.20;0.15;;;;;;;;;;4980351;28;20047;-87
2022/09/27 04:25:54;;;;;;;0.20;0.10;;;;;;;;;;5008141;28;20049;-88
2022/09/27 04:28:20;;;;;;;0.20;0.10;;;;;;;;;;4968490;28;20088;-85
2022/09/27 04:30:46;;;;;;;0.20;0.10;;;;;;;;;;4993923;28;20088;-86
2022/09/27 04:33:12;;;;;;;0.20;0.10;;;;;;;;;;4967346;28;20100;-85
2022/09/27 04:38:23;;;;;;;0.20;0.10;;;;;;;;;;4980024;28;20563;-87
2022/09/27 04:40:49;;;;;;;0.20;0.10;;;;;;;;;;4958480;28;20127;-85
2022/09/27 04:43:16;;;;;;;0.20;0.10;;;;;;;;;;4980333;28;20069;-86
2022/09/27 04:45:45;;;;;;;0.20;0.10;;;;;;;;;;4997486;28;20566;-84
2022/09/27 04:48:11;;;;;;;0.20;0.10;;;;;;;;;;4994411;28;20136;-86
2022/09/27 04:50:39;;;;;;;0.20;0.10;;;;;;;;;;4991935;28;20061;-85
2022/09/27 04:53:05;;;;;;;0.20;0.10;;;;;;;;;;4993376;28;20053;-87
2022/09/27 04:55:31;;;;;;;0.20;0.10;;;;;;;;;;5008235;28;20048;-87
2022/09/27 04:57:58;;;;;;;0.20;0.10;;;;;;;;;;4982370;28;20393;-88
2022/09/27 05:00:24;;;;;;;0.20;0.10;;;;;;;;;;4965262;28;20493;-87
2022/09/27 05:02:50;;;;;;;0.20;0.10;;;;;;;;;;4984464;28;20378;-86
2022/09/27 05:05:18;;;;;;;0.20;0.10;;;;;;;;;;4985500;28;20041;-85
2022/09/27 05:07:47;;;;;;;0.20;0.10;;;;;;;;;;4968280;28;20042;-90
2022/09/27 05:10:14;;;;;;;0.20;0.10;;;;;;;;;;4998788;28;20046;-85
2022/09/27 05:12:43;;;;;;;0.20;0.10;;;;;;;;;;4975190;28;20508;-85
2022/09/27 05:15:11;;;;;;;0.20;0.10;;;;;;;;;;4973848;28;20567;-87
2022/09/27 05:17:38;;;;;;;0.20;0.10;;;;;;;;;;4988696;28;20038;-86
2022/09/27 05:20:04;;;;;;;0.20;0.10;;;;;;;;;;4986249;28;20064;-86
2022/09/27 05:22:30;;;;;;;0.20;0.10;;;;;;;;;;4985401;28;20111;-85
2022/09/27 05:24:56;;;;;;;0.20;0.10;;;;;;;;;;4955976;28;20272;-87
2022/09/27 05:27:22;;;;;;;0.20;0.10;;;;;;;;;;5000783;28;20581;-86
2022/09/27 05:29:52;;;;;;;0.20;0.10;;;;;;;;;;4982234;28;22360;-86
2022/09/27 05:32:18;;;;;;;0.20;0.10;;;;;;;;;;4984513;28;20060;-85
2022/09/27 05:34:44;;;;;;;0.73;0.47;;;;;;;;;;4982720;28;20567;-86
2022/09/27 05:37:10;;;;;;;0.20;0.10;;;;;;;;;;5001036;28;20042;-85
2022/09/27 05:39:36;;;;;;;0.20;0.10;;;;;;;;;;4966543;28;20045;-86
2022/09/27 05:42:03;;;;;;;0.20;0.10;;;;;;;;;;4966824;28;20500;-86
2022/09/27 05:44:30;;;;;;;0.20;0.10;;;;;;;;;;4968324;28;20540;-87
2022/09/27 05:47:49;;;;;;;0.20;0.10;;;;;;;;;;4953418;28;20038;-85
2022/09/27 05:50:14;;;;;;;0.20;0.10;;;;;;;;;;4984748;28;20049;-84
2022/09/27 05:52:58;;;;;;;0.20;0.10;;;;;;;;;;4963975;28;20046;-87
2022/09/27 05:55:48;;;;;;;0.20;0.10;;;;;;;;;;4987228;28;20528;-88
2022/09/27 05:58:17;;;;;;;0.20;0.10;;;;;;;;;;4979205;28;20595;-86
2022/09/27 06:00:43;;;;;;;0.20;0.10;;;;;;;;;;4975047;28;20508;-85
2022/09/27 06:03:11;;;;;;;0.20;0.10;;;;;;;;;;4999627;28;20508;-86
2022/09/27 06:05:38;;;;;;;0.20;0.10;;;;;;;;;;4997868;28;20065;-87
2022/09/27 06:08:11;;;;;;;0.20;0.10;;;;;;;;;;4978686;28;20053;-84
2022/09/27 06:10:38;;;;;;;0.20;0.10;;;;;;;;;;4980563;28;20046;-88
2022/09/27 06:13:07;;;;;;;0.20;0.10;;;;;;;;;;4997173;28;20520;-86
2022/09/27 06:15:34;;;;;;;0.20;0.10;;;;;;;;;;4969708;28;20470;-84
2022/09/27 06:18:08;;;;;;;0.20;0.10;;;;;;;;;;4977261;28;20035;-86
2022/09/27 06:20:35;;;;;;;0.20;0.10;;;;;;;;;;4979209;28;20042;-85
2022/09/27 06:23:07;;;;;;;0.20;0.10;;;;;;;;;;4980804;28;20072;-85
2022/09/27 06:25:34;;;;;;;0.20;0.10;;;;;;;;;;4979886;28;20053;-85
2022/09/27 06:28:01;;;;;;;0.20;0.10;;;;;;;;;;4983596;28;20181;-87
2022/09/27 06:30:27;;;;;;;0.20;0.10;;;;;;;;;;4975844;28;20492;-84
2022/09/27 06:32:57;;;;;;;0.20;0.10;;;;;;;;;;4997379;28;20042;-85
2022/09/27 06:35:23;;;;;;;0.20;0.10;;;;;;;;;;4983697;28;20096;-85
2022/09/27 06:37:52;;;;;;;0.20;0.10;;;;;;;;;;4998554;28;20042;-86
2022/09/27 06:40:19;;;;;;;0.20;0.10;;;;;;;;;;4981431;28;20034;-85
2022/09/27 06:42:48;;;;;;;0.20;0.10;;;;;;;;;;4996091;28;20532;-85
2022/09/27 06:45:19;;;;;;;0.20;0.08;;;;;;;;;;4979271;28;20041;-84
2022/09/27 06:47:46;;;;;;;0.20;0.10;;;;;;;;;;5000078;28;20037;-83
2022/09/27 06:50:13;;;;;;;0.20;0.10;;;;;;;;;;4999433;28;20050;-85
2022/09/27 06:52:46;;;;;;;0.20;0.10;;;;;;;;;;5008940;28;20042;-84
2022/09/27 06:55:12;;;;;;;0.20;0.10;;;;;;;;;;4977529;28;20054;-84
2022/09/27 07:00:22;;;;;;;0.20;0.10;;;;;;;;;;4980852;28;20041;-83
2022/09/27 07:02:49;;;;;;;0.20;0.05;;;;;;;;;;5010397;28;20128;-84
2022/09/27 07:05:16;;;;;;;0.20;0.10;;;;;;;;;;4994079;28;20139;-82
2022/09/27 07:07:42;;;;;;;0.20;0.10;;;;;;;;;;4977840;28;20045;-83
2022/09/27 07:10:09;;;;;;;0.20;0.10;;;;;;;;;;4995073;28;20037;-84
2022/09/27 07:12:35;;;;;;;0.20;0.10;;;;;;;;;;4978788;28;20390;-83
2022/09/27 07:15:02;;;;;;;0.20;0.10;;;;;;;;;;4982259;28;20050;-84
2022/09/27 07:17:28;;;;;;;0.20;0.10;;;;;;;;;;5010867;28;20037;-84
2022/09/27 07:19:55;;;;;;;0.20;0.10;;;;;;;;;;4976929;28;20038;-85
2022/09/27 07:22:21;;;;;;;0.20;0.10;;;;;;;;;;4995042;28;20115;-83
2022/09/27 07:24:47;;;;;;;0.20;0.10;;;;;;;;;;4997981;28;20085;-82
2022/09/27 07:27:14;;;;;;;0.20;0.10;;;;;;;;;;5013105;28;20128;-83
2022/09/27 07:29:40;;;;;;;0.20;0.10;;;;;;;;;;4981059;28;20192;-84
2022/09/27 07:32:06;;;;;;;0.20;0.10;;;;;;;;;;4964453;28;20041;-84
2022/09/27 07:34:33;;;;;;;0.20;0.10;;;;;;;;;;4995381;28;20038;-83
2022/09/27 07:37:00;;;;;;;0.20;0.10;;;;;;;;;;4977376;28;20061;-86
2022/09/27 07:39:26;;;;;;;0.73;0.38;;;;;;;;;;4980619;28;20475;-81
2022/09/27 07:41:52;;;;;;;0.20;0.10;;;;;;;;;;4998249;28;20042;-84
2022/09/27 07:44:18;;;;;;;0.20;0.10;;;;;;;;;;4964665;28;20045;-83
2022/09/27 07:46:44;;;;;;;0.20;0.10;;;;;;;;;;5015921;28;20045;-84
2022/09/27 07:49:11;;;;;;;0.20;0.10;;;;;;;;;;5003436;28;20135;-84
2022/09/27 07:51:37;;;;;;;0.20;0.10;;;;;;;;;;5002232;28;20050;-81
2022/09/27 07:54:03;;;;;;;0.20;0.10;;;;;;;;;;4982532;28;20049;-85
2022/09/27 07:56:29;;;;;;;0.20;0.10;;;;;;;;;;4984902;28;20045;-83
2022/09/27 07:58:55;;;;;;;0.20;0.10;;;;;;;;;;4987085;28;20088;-84
2022/09/27 08:01:21;;;;;;;0.20;0.03;;;;;;;;;;4996851;28;20041;-82
2022/09/27 08:03:47;;;;;;;0.20;0.10;;;;;;;;;;4986689;28;20038;-83
2022/09/27 08:06:13;;;;;;;0.20;0.10;;;;;;;;;;5015004;28;20041;-81
2022/09/27 08:08:40;;;;;;;0.20;0.10;;;;;;;;;;4984451;28;20134;-84
2022/09/27 08:11:14;;;;;;;0.20;0.10;;;;;;;;;;5015810;28;20065;-84
2022/09/27 08:13:43;;;;;;;0.20;0.10;;;;;;;;;;4999555;28;20049;-82
2022/09/27 08:16:10;;;;;;;0.20;0.10;;;;;;;;;;5004793;28;20030;-83
2022/09/27 08:18:36;;;;;;;0.20;0.10;;;;;;;;;;5013730;28;20168;-82
2022/09/27 08:21:03;;;;;;;0.20;0.10;;;;;;;;;;4998125;28;20160;-83
2022/09/27 08:23:29;;;;;;;0.20;0.10;;;;;;;;;;4980336;28;20042;-83
2022/09/27 08:25:58;;;;;;;0.20;0.10;;;;;;;;;;5013342;28;20042;-84
2022/09/27 08:28:25;;;;;;;0.20;0.10;;;;;;;;;;4980422;28;20089;-84
2022/09/27 08:30:51;;;;;;;0.20;0.10;;;;;;;;;;4984925;28;20054;-81
2022/09/27 08:33:17;;;;;;;0.20;0.10;;;;;;;;;;4999365;28;20053;-84
2022/09/27 08:35:43;;;;;;;0.20;0.10;;;;;;;;;;5000495;28;20532;-82
2022/09/27 08:38:10;;;;;;;0.20;0.10;;;;;;;;;;4994698;28;20389;-85
2022/09/27 08:40:46;;;;;;;0.20;0.10;;;;;;;;;;4999447;28;20046;-83
2022/09/27 08:43:12;;;;;;;0.20;0.10;;;;;;;;;;4981170;28;20053;-83
2022/09/27 08:45:55;;;;;;;0.20;0.10;;;;;;;;;;4999557;28;20050;-84
2022/09/27 08:48:23;;;;;;;0.20;0.10;;;;;;;;;;5002653;28;20599;-83
2022/09/27 08:50:49;;;;;;;0.20;0.10;;;;;;;;;;5015685;28;20041;-86
2022/09/27 08:53:37;;;;;;;0.20;0.10;;;;;;;;;;5013134;28;20042;-83
2022/09/27 08:56:07;;;;;;;0.20;0.10;;;;;;;;;;4982788;28;20060;-84
2022/09/27 08:58:37;;;;;;;0.20;0.10;;;;;;;;;;4983531;28;20034;-85
2022/09/27 09:01:08;;;;;;;0.20;0.10;;;;;;;;;;4997116;28;20037;-84
2022/09/27 09:03:35;;;;;;;0.20;0.10;;;;;;;;;;4997982;28;20126;-84
2022/09/27 09:06:18;;;;;;;0.20;0.10;;;;;;;;;;5017839;28;20125;-84
2022/09/27 09:09:03;;;;;;;0.20;0.10;;;;;;;;;;4978928;28;20050;-83
2022/09/27 09:14:27;;;;;;;0.20;0.10;;;;;;;;;;5017511;28;20067;-83
2022/09/27 09:16:53;;;;;;;;;;;;;;;;;;5014236;28;20050;-86
2022/09/27 09:19:30;;;;;;;0.20;0.10;;;;;;;;;;4997477;28;19993;-84
2022/09/27 09:21:59;;;;;;;0.20;0.10;;;;;;;;;;4978796;28;20247;-85
2022/09/27 09:24:33;;;;;;;0.20;0.10;;;;;;;;;;4999087;28;20050;-83
2022/09/27 09:27:05;;;;;;;0.20;0.10;;;;;;;;;;4978711;28;20040;-82
2022/09/27 09:29:36;;;;;;;0.20;0.10;;;;;;;;;;5014228;28;20038;-84
2022/09/27 09:32:14;;;;;;;0.20;0.10;;;;;;;;;;4968509;28;20065;-83
2022/09/27 09:34:46;;;;;;;0.20;0.10;;;;;;;;;;5015946;28;20041;-81
2022/09/27 09:37:12;;;;;;;0.20;0.10;;;;;;;;;;5014410;28;20459;-82
2022/09/27 09:39:42;;;;;;;0.20;0.10;;;;;;;;;;4998677;28;20050;-83
2022/09/27 09:42:08;;;;;;;0.20;0.10;;;;;;;;;;5013034;28;20038;-84
2022/09/27 09:44:40;;;;;;;0.20;0.10;;;;;;;;;;5015938;28;20050;-84
2022/09/27 09:47:12;;;;;;;0.20;0.10;;;;;;;;;;5013461;28;20513;-84
2022/09/27 09:49:42;;;;;;;0.20;0.10;;;;;;;;;;4997454;28;20489;-82
2022/09/27 09:52:14;;;;;;;0.20;0.10;;;;;;;;;;5011658;28;20035;-82
2022/09/27 09:55:06;;;;;;;0.20;0.10;;;;;;;;;;4979132;28;20050;-84
2022/09/27 09:57:40;;;;;;;0.20;0.10;;;;;;;;;;4996909;28;20660;-83
2022/09/27 10:00:16;;;;;;;0.20;0.10;;;;;;;;;;4985248;28;20049;-82
2022/09/27 10:02:44;;;;;;;0.20;0.10;;;;;;;;;;4979003;28;20523;-83
2022/09/27 10:05:14;;;;;;;0.20;0.05;;;;;;;;;;4996144;28;20046;-83
2022/09/27 10:07:40;;;;;;;0.20;0.10;;;;;;;;;;4983256;28;20520;-83
2022/09/27 10:12:39;;;;;;;0.20;0.10;;;;;;;;;;4978281;28;20129;-86
2022/09/27 10:15:05;;;;;;;0.20;0.10;;;;;;;;;;4947981;28;21074;-87
2022/09/27 10:17:36;;;;;;;0.20;0.10;;;;;;;;;;4948694;28;20072;-85
2022/09/27 10:20:03;;;;;;;0.20;0.10;;;;;;;;;;4965542;28;20452;-85
2022/09/27 10:22:37;;;;;;;0.20;0.10;;;;;;;;;;4950708;28;20145;-84
2022/09/27 10:25:07;;;;;;;0.20;0.10;;;;;;;;;;4967383;28;20045;-88
2022/09/27 10:27:42;;;;;;;0.20;0.10;;;;;;;;;;4948407;28;20058;-84
2022/09/27 10:30:22;;;;;;;0.20;0.10;;;;;;;;;;4963835;28;20048;-85
2022/09/27 10:32:51;;;;;;;0.20;0.10;;;;;;;;;;4948567;28;20041;-85
2022/09/27 10:35:29;;;;;;;0.20;0.10;;;;;;;;;;4948323;28;20257;-87
2022/09/27 10:38:15;;;;;;;0.20;0.10;;;;;;;;;;4965557;28;20100;-85
2022/09/27 10:40:42;;;;;;;0.20;0.10;;;;;;;;;;4949314;28;20160;-82
2022/09/27 10:43:26;;;;;;;0.20;0.10;;;;;;;;;;4964228;28;20058;-83
2022/09/27 10:46:06;;;;;;;0.20;0.10;;;;;;;;;;4963367;28;20054;-83
2022/09/27 10:48:32;;;;;;;0.20;0.10;;;;;;;;;;4966896;28;20583;-86
2022/09/27 10:51:03;;;;;;;0.20;0.10;;;;;;;;;;4951538;28;20069;-86
2022/09/27 10:53:30;;;;;;;0.20;0.10;;;;;;;;;;4950483;28;20034;-80
2022/09/27 10:55:57;;;;;;;0.20;0.10;;;;;;;;;;4965731;28;20489;-84
2022/09/27 10:58:27;;;;;;;0.20;0.08;;;;;;;;;;4950552;28;20527;-83
2022/09/27 11:00:55;;;;;;;0.20;0.10;;;;;;;;;;4967162;28;20089;-83
2022/09/27 11:03:24;;;;;;;0.20;0.10;;;;;;;;;;4952182;28;20037;-87
2022/09/27 11:05:53;;;;;;;0.20;0.10;;;;;;;;;;4951182;28;20066;-83
2022/09/27 11:08:23;;;;;;;0.20;0.00;;;;;;;;;;4932854;28;20042;-84
2022/09/27 11:11:07;;;;;;;0.20;0.10;;;;;;;;;;4964723;28;20082;-84
2022/09/27 11:13:34;;;;;;;0.20;0.10;;;;;;;;;;4978574;28;20218;-83
2022/09/27 11:16:13;;;;;;;0.20;0.10;;;;;;;;;;4963348;28;20046;-83
2022/09/27 11:18:43;;;;;;;0.20;0.10;;;;;;;;;;4950540;28;20038;-82
2022/09/27 11:21:09;;;;;;;0.20;0.10;;;;;;;;;;4966201;28;20089;-83
2022/09/27 11:23:45;;;;;;;0.20;0.10;;;;;;;;;;4967882;28;20572;-82
2022/09/27 11:26:18;;;;;;;0.20;0.10;;;;;;;;;;4969778;28;20085;-82
2022/09/27 11:29:01;;;;;;;0.20;0.10;;;;;;;;;;4968542;28;20064;-82
2022/09/27 11:31:43;;;;;;;0.20;0.10;;;;;;;;;;4983548;28;20057;-82
2022/09/27 11:34:20;;;;;;;0.20;0.10;;;;;;;;;;4967813;28;20544;-82
2022/09/27 11:37:06;;;;;;;0.20;0.10;;;;;;;;;;4951957;28;20403;-80
2022/09/27 11:39:58;;;;;;;0.20;0.10;;;;;;;;;;4969255;28;20038;-83
2022/09/27 11:42:40;;;;;;;0.20;0.10;;;;;;;;;;4953350;28;20069;-82
2022/09/27 11:45:26;;;;;;;0.20;0.10;;;;;;;;;;4969732;28;20066;-81
2022/09/27 11:47:55;;;;;;;0.20;0.10;;;;;;;;;;4952375;28;20131;-81
2022/09/27 11:50:34;;;;;;;0.20;0.10;;;;;;;;;;4968000;28;20453;-82
2022/09/27 11:53:00;;;;;;;0.20;0.10;;;;;;;;;;4950381;28;20030;-81
2022/09/27 11:55:45;;;;;;;0.20;0.10;;;;;;;;;;4967988;28;20042;-82
2022/09/27 11:58:17;;;;;;;0.20;0.10;;;;;;;;;;4967826;28;20037;-81
2022/09/27 12:00:43;;;;;;;;;;;;;;;;;;4969550;28;20046;-80
2022/09/27 12:03:09;;;;;;;0.20;0.10;;;;;;;;;;4968392;28;19926;-81
2022/09/27 12:06:02;;;;;;;0.20;0.10;;;;;;;;;;4968539;28;20050;-81
2022/09/27 12:08:46;;;;;;;0.20;0.10;;;;;;;;;;4965351;28;20046;-82
2022/09/27 12:11:21;;;;;;;0.20;0.10;;;;;;;;;;4966660;28;20089;-81
2022/09/27 12:13:57;;;;;;;0.20;0.10;;;;;;;;;;4953175;28;20030;-81
2022/09/27 12:16:23;;;;;;;0.20;0.10;;;;;;;;;;4984167;28;20050;-81
2022/09/27 12:18:50;;;;;;;0.20;0.10;;;;;;;;;;4968290;28;20475;-79
2022/09/27 12:21:17;;;;;;;0.20;0.10;;;;;;;;;;4971602;28;20460;-82
2022/09/27 12:23:51;;;;;;;0.20;0.10;;;;;;;;;;4952475;28;20054;-82
2022/09/27 12:26:20;;;;;;;0.20;0.10;;;;;;;;;;4966835;28;20505;-82
2022/09/27 12:28:46;;;;;;;0.20;0.10;;;;;;;;;;4969107;28;20057;-82
2022/09/27 12:31:15;;;;;;;0.20;0.10;;;;;;;;;;4955545;28;20042;-82
2022/09/27 12:33:46;;;;;;;0.20;0.10;;;;;;;;;;4969664;28;20526;-82
2022/09/27 12:36:16;;;;;;;0.20;0.10;;;;;;;;;;4967099;28;20051;-81
2022/09/27 12:39:04;;;;;;;0.20;0.10;;;;;;;;;;4968363;28;20137;-84
2022/09/27 12:41:34;;;;;;;0.20;0.10;;;;;;;;;;4951593;28;20038;-82
2022/09/27 12:44:00;;;;;;;0.20;0.10;;;;;;;;;;4966306;28;20049;-82
2022/09/27 12:46:48;;;;;;;0.20;0.10;;;;;;;;;;4949397;28;20152;-82
2022/09/27 12:49:22;;;;;;;0.20;0.10;;;;;;;;;;4950084;28;20050;-82
2022/09/27 12:51:59;;;;;;;0.20;0.10;;;;;;;;;;4984919;28;20045;-82
2022/09/27 12:54:35;;;;;;;0.20;0.10;;;;;;;;;;4969974;28;20030;-84
2022/09/27 12:57:19;;;;;;;0.20;0.10;;;;;;;;;;4967770;28;20050;-83
2022/09/27 12:59:58;;;;;;;0.20;0.10;;;;;;;;;;4966170;28;20037;-82
2022/09/27 13:02:43;;;;;;;0.20;0.10;;;;;;;;;;4948686;28;20030;-83
2022/09/27 13:05:09;;;;;;;0.20;0.10;;;;;;;;;;4966993;28;20038;-82
2022/09/27 13:07:42;;;;;;;0.20;0.10;;;;;;;;;;4952445;28;20041;-82
2022/09/27 13:10:27;;;;;;;0.20;0.10;;;;;;;;;;4952576;28;20042;-81
2022/09/27 13:12:54;;;;;;;0.20;0.10;;;;;;;;;;4966982;28;20034;-81
2022/09/27 13:15:40;;;;;;;0.43;0.20;;;;;;;;;;4965933;28;20116;-84
2022/09/27 13:18:26;;;;;;;0.20;0.10;;;;;;;;;;4982209;28;20038;-82
2022/09/27 13:20:54;;;;;;;0.20;0.10;;;;;;;;;;4979269;28;20039;-82
2022/09/27 13:23:30;;;;;;;0.20;0.10;;;;;;;;;;4949443;28;20045;-81
2022/09/27 13:25:59;;;;;;;0.20;0.10;;;;;;;;;;4949524;28;20047;-82
2022/09/27 13:28:31;;;;;;;0.20;0.10;;;;;;;;;;4965840;28;20117;-82
2022/09/27 13:30:57;;;;;;;0.20;0.10;;;;;;;;;;4967052;28;20070;-80
2022/09/27 13:33:32;;;;;;;0.20;0.10;;;;;;;;;;4968346;28;20041;-83
2022/09/27 13:36:18;;;;;;;0.20;0.10;;;;;;;;;;4963521;28;20412;-82
2022/09/27 13:39:04;;;;;;;0.20;0.10;;;;;;;;;;4965461;28;20030;-82
2022/09/27 13:41:52;;;;;;;0.20;0.10;;;;;;;;;;4979113;28;20420;-82
2022/09/27 13:44:22;;;;;;;0.20;0.10;;;;;;;;;;4964361;28;20042;-84
2022/09/27 13:46:51;;;;;;;0.20;0.10;;;;;;;;;;4963636;28;20045;-83
2022/09/27 13:49:38;;;;;;;0.20;0.10;;;;;;;;;;4963941;28;20062;-83
2022/09/27 13:52:24;;;;;;;0.20;0.10;;;;;;;;;;4950643;28;20425;-82
2022/09/27 13:54:57;;;;;;;0.20;0.10;;;;;;;;;;4965636;28;20505;-83
2022/09/27 13:57:36;;;;;;;0.20;0.10;;;;;;;;;;4965124;28;20046;-83
2022/09/27 14:00:05;;;;;;;0.20;0.10;;;;;;;;;;4966046;28;20052;-84
2022/09/27 14:02:51;;;;;;;0.20;0.10;;;;;;;;;;4963697;28;20042;-82
2022/09/27 14:05:20;;;;;;;0.20;0.10;;;;;;;;;;4980054;28;20189;-83
2022/09/27 14:07:48;;;;;;;0.20;0.05;;;;;;;;;;4964006;28;20077;-84
2022/09/27 14:10:16;;;;;;;0.20;0.10;;;;;;;;;;4963325;28;20126;-82
2022/09/27 14:12:43;;;;;;;0.20;0.10;;;;;;;;;;4967071;28;20038;-82
2022/09/27 14:15:16;;;;;;;0.20;0.10;;;;;;;;;;4962788;28;20047;-83
2022/09/27 14:17:45;;;;;;;0.20;0.10;;;;;;;;;;4948454;28;20045;-84
2022/09/27 14:20:33;;;;;;;0.20;0.10;;;;;;;;;;4947675;28;20030;-84
2022/09/27 14:23:00;;;;;;;0.20;0.10;;;;;;;;;;4966962;28;20062;-85
2022/09/27 14:25:26;;;;;;;0.20;0.10;;;;;;;;;;4957289;28;20038;-84
2022/09/27 14:27:52;;;;;;;0.20;0.10;;;;;;;;;;4953043;28;20046;-84
2022/09/27 14:30:23;;;;;;;0.20;0.10;;;;;;;;;;4966843;28;20121;-83
2022/09/27 14:32:50;;;;;;;0.20;0.10;;;;;;;;;;4965356;28;20085;-84
2022/09/27 14:38:04;;;;;;;0.32;0.30;;;;;;;;;;4967609;28;20754;-84
2022/09/27 14:40:34;;;;;;;0.20;0.10;;;;;;;;;;4966832;28;20438;-85
2022/09/27 14:43:00;;;;;;;0.20;0.10;;;;;;;;;;4965061;28;20122;-84
2022/09/27 14:45:26;;;;;;;0.20;0.10;;;;;;;;;;4960383;28;20069;-82
2022/09/27 14:47:52;;;;;;;1.17;0.90;;;;;;;;;;4977053;28;20647;-83
2022/09/27 14:50:31;;;;;;;0.20;0.10;;;;;;;;;;4965030;28;20074;-83
2022/09/27 14:52:59;;;;;;;0.30;0.10;;;;;;;;;;4967256;28;20440;-84
2022/09/27 14:55:27;;;;;;;0.20;0.10;;;;;;;;;;4953144;28;20119;-82
2022/09/27 14:57:54;;;;;;;0.20;0.10;;;;;;;;;;4976739;28;20038;-82
2022/09/27 15:00:22;;;;;;;0.20;0.10;;;;;;;;;;4963322;28;20039;-84
2022/09/27 15:02:53;;;;;;;0.20;0.10;;;;;;;;;;4959828;28;20050;-84
2022/09/27 15:05:20;;;;;;;0.20;0.10;;;;;;;;;;4978855;28;20368;-83
2022/09/27 15:07:46;;;;;;;0.20;0.10;;;;;;;;;;4964783;28;20057;-83
2022/09/27 15:10:15;;;;;;;0.20;0.10;;;;;;;;;;4967261;28;20104;-85
2022/09/27 15:12:42;;;;;;;0.20;0.10;;;;;;;;;;4961994;28;20424;-83
2022/09/27 15:15:12;;;;;;;0.20;0.20;;;;;;;;;;4949217;28;20045;-85
2022/09/27 15:17:44;;;;;;;0.20;0.10;;;;;;;;;;4958003;28;20039;-83
2022/09/27 15:20:31;;;;;;;0.20;0.10;;;;;;;;;;4935188;28;20039;-86
2022/09/27 15:23:04;;;;;;;0.20;0.10;;;;;;;;;;4943781;28;20057;-84